sensor_id;sensor_type;location;lat;lon;timestamp;P1;durP1;ratioP1;P2;durP2;ratioP2
49123;SDS011;48506;48.202;16.274;2023-06-26T00:01:27;9.40;;;6.47;;
49123;SDS011;48506;48.202;16.274;2023-06-26T00:03:56;7.85;;;6.00;;
49123;SDS011;48506;48.202;16.274;2023-06-26T00:06:24;9.38;;;5.45;;
49123;SDS011;48506;48.202;16.274;2023-06-26T00:08:54;7.28;;;5.50;;
49123;SDS011;48506;48.202;16.274;2023-06-26T00:11:21;8.20;;;5.93;;
49123;SDS011;48506;48.202;16.274;2023-06-26T00:13:48;11.75;;;6.32;;
49123;SDS011;48506;48.202;16.274;2023-06-26T00:16:14;7.70;;;5.72;;
49123;SDS011;48506;48.202;16.274;2023-06-26T00:18:40;7.35;;;5.60;;
49123;SDS011;48506;48.202;16.274;2023-06-26T00:21:06;9.13;;;5.65;;
49123;SDS011;48506;48.202;16.274;2023-06-26T00:23:31;8.63;;;6.55;;
49123;SDS011;48506;48.202;16.274;2023-06-26T00:28:28;7.18;;;5.95;;
49123;SDS011;48506;48.202;16.274;2023-06-26T00:30:54;7.47;;;6.53;;
49123;SDS011;48506;48.202;16.274;2023-06-26T00:33:20;9.20;;;5.22;;
49123;SDS011;48506;48.202;16.274;2023-06-26T00:35:45;8.52;;;6.25;;
49123;SDS011;48506;48.202;16.274;2023-06-26T00:38:11;11.40;;;6.22;;
49123;SDS011;48506;48.202;16.274;2023-06-26T00:40:37;8.98;;;6.70;;
49123;SDS011;48506;48.202;16.274;2023-06-26T00:43:03;11.20;;;7.00;;
49123;SDS011;48506;48.202;16.274;2023-06-26T00:45:29;10.13;;;6.20;;
49123;SDS011;48506;48.202;16.274;2023-06-26T00:47:55;8.45;;;6.28;;
49123;SDS011;48506;48.202;16.274;2023-06-26T00:50:21;7.97;;;6.35;;
49123;SDS011;48506;48.202;16.274;2023-06-26T00:52:48;8.05;;;6.50;;
49123;SDS011;48506;48.202;16.274;2023-06-26T00:55:14;8.48;;;5.78;;
49123;SDS011;48506;48.202;16.274;2023-06-26T00:57:40;15.10;;;6.97;;
49123;SDS011;48506;48.202;16.274;2023-06-26T01:00:06;8.57;;;6.07;;
49123;SDS011;48506;48.202;16.274;2023-06-26T01:02:33;10.50;;;6.35;;
49123;SDS011;48506;48.202;16.274;2023-06-26T01:05:01;7.82;;;5.97;;
49123;SDS011;48506;48.202;16.274;2023-06-26T01:07:34;7.88;;;6.43;;
49123;SDS011;48506;48.202;16.274;2023-06-26T01:10:06;8.98;;;6.38;;
49123;SDS011;48506;48.202;16.274;2023-06-26T01:12:33;6.90;;;5.60;;
49123;SDS011;48506;48.202;16.274;2023-06-26T01:14:59;7.50;;;6.10;;
49123;SDS011;48506;48.202;16.274;2023-06-26T01:17:26;11.13;;;6.63;;
49123;SDS011;48506;48.202;16.274;2023-06-26T01:20:00;12.40;;;7.18;;
49123;SDS011;48506;48.202;16.274;2023-06-26T01:25:12;7.57;;;5.95;;
49123;SDS011;48506;48.202;16.274;2023-06-26T01:27:46;11.02;;;7.25;;
49123;SDS011;48506;48.202;16.274;2023-06-26T01:30:14;8.32;;;7.45;;
49123;SDS011;48506;48.202;16.274;2023-06-26T01:32:43;8.27;;;5.88;;
49123;SDS011;48506;48.202;16.274;2023-06-26T01:35:11;8.27;;;6.65;;
49123;SDS011;48506;48.202;16.274;2023-06-26T01:37:37;8.60;;;6.03;;
49123;SDS011;48506;48.202;16.274;2023-06-26T01:40:04;7.78;;;6.15;;
49123;SDS011;48506;48.202;16.274;2023-06-26T01:42:31;9.10;;;6.78;;
49123;SDS011;48506;48.202;16.274;2023-06-26T01:44:58;8.63;;;6.60;;
49123;SDS011;48506;48.202;16.274;2023-06-26T01:47:47;8.40;;;6.32;;
49123;SDS011;48506;48.202;16.274;2023-06-26T01:50:22;8.55;;;6.35;;
49123;SDS011;48506;48.202;16.274;2023-06-26T01:58:19;10.40;;;7.28;;
49123;SDS011;48506;48.202;16.274;2023-06-26T02:03:14;8.23;;;6.25;;
49123;SDS011;48506;48.202;16.274;2023-06-26T02:05:40;13.48;;;6.80;;
49123;SDS011;48506;48.202;16.274;2023-06-26T02:08:08;8.43;;;6.95;;
49123;SDS011;48506;48.202;16.274;2023-06-26T02:10:34;12.95;;;5.95;;
49123;SDS011;48506;48.202;16.274;2023-06-26T02:13:00;9.65;;;6.65;;
49123;SDS011;48506;48.202;16.274;2023-06-26T02:15:26;9.10;;;6.72;;
49123;SDS011;48506;48.202;16.274;2023-06-26T02:17:52;9.00;;;6.10;;
49123;SDS011;48506;48.202;16.274;2023-06-26T02:20:18;7.63;;;6.82;;
49123;SDS011;48506;48.202;16.274;2023-06-26T02:22:44;11.35;;;6.45;;
49123;SDS011;48506;48.202;16.274;2023-06-26T02:25:10;10.13;;;6.78;;
49123;SDS011;48506;48.202;16.274;2023-06-26T02:27:38;7.63;;;5.78;;
49123;SDS011;48506;48.202;16.274;2023-06-26T02:30:04;10.60;;;6.85;;
49123;SDS011;48506;48.202;16.274;2023-06-26T02:32:31;9.43;;;6.88;;
49123;SDS011;48506;48.202;16.274;2023-06-26T02:34:56;9.40;;;6.43;;
49123;SDS011;48506;48.202;16.274;2023-06-26T02:37:22;14.05;;;7.55;;
49123;SDS011;48506;48.202;16.274;2023-06-26T02:39:48;9.60;;;7.35;;
49123;SDS011;48506;48.202;16.274;2023-06-26T02:42:14;7.93;;;6.20;;
49123;SDS011;48506;48.202;16.274;2023-06-26T02:44:40;9.77;;;7.07;;
49123;SDS011;48506;48.202;16.274;2023-06-26T02:47:06;9.48;;;6.18;;
49123;SDS011;48506;48.202;16.274;2023-06-26T02:49:32;10.18;;;6.45;;
49123;SDS011;48506;48.202;16.274;2023-06-26T02:51:58;9.27;;;7.03;;
49123;SDS011;48506;48.202;16.274;2023-06-26T02:54:24;8.50;;;6.68;;
49123;SDS011;48506;48.202;16.274;2023-06-26T02:56:50;13.07;;;7.38;;
49123;SDS011;48506;48.202;16.274;2023-06-26T02:59:15;7.28;;;6.28;;
49123;SDS011;48506;48.202;16.274;2023-06-26T03:01:41;9.45;;;6.20;;
49123;SDS011;48506;48.202;16.274;2023-06-26T03:04:07;10.55;;;6.93;;
49123;SDS011;48506;48.202;16.274;2023-06-26T03:06:34;9.32;;;6.35;;
49123;SDS011;48506;48.202;16.274;2023-06-26T03:09:00;9.65;;;5.78;;
49123;SDS011;48506;48.202;16.274;2023-06-26T03:11:26;9.80;;;6.13;;
49123;SDS011;48506;48.202;16.274;2023-06-26T03:13:52;8.88;;;6.10;;
49123;SDS011;48506;48.202;16.274;2023-06-26T03:16:18;8.50;;;6.30;;
49123;SDS011;48506;48.202;16.274;2023-06-26T03:18:44;7.53;;;6.50;;
49123;SDS011;48506;48.202;16.274;2023-06-26T03:21:10;8.88;;;6.03;;
49123;SDS011;48506;48.202;16.274;2023-06-26T03:23:36;8.35;;;6.28;;
49123;SDS011;48506;48.202;16.274;2023-06-26T03:26:02;12.18;;;6.32;;
49123;SDS011;48506;48.202;16.274;2023-06-26T03:28:28;9.68;;;6.40;;
49123;SDS011;48506;48.202;16.274;2023-06-26T03:30:56;7.47;;;6.10;;
49123;SDS011;48506;48.202;16.274;2023-06-26T03:33:22;9.32;;;6.30;;
49123;SDS011;48506;48.202;16.274;2023-06-26T03:35:48;8.43;;;6.15;;
49123;SDS011;48506;48.202;16.274;2023-06-26T03:38:14;9.27;;;6.55;;
49123;SDS011;48506;48.202;16.274;2023-06-26T03:40:40;9.30;;;6.38;;
49123;SDS011;48506;48.202;16.274;2023-06-26T03:43:06;7.07;;;6.10;;
49123;SDS011;48506;48.202;16.274;2023-06-26T03:45:32;11.32;;;7.13;;
49123;SDS011;48506;48.202;16.274;2023-06-26T03:47:58;8.50;;;6.50;;
49123;SDS011;48506;48.202;16.274;2023-06-26T03:50:24;7.13;;;5.68;;
49123;SDS011;48506;48.202;16.274;2023-06-26T03:52:50;9.57;;;6.65;;
49123;SDS011;48506;48.202;16.274;2023-06-26T03:55:17;9.27;;;6.53;;
49123;SDS011;48506;48.202;16.274;2023-06-26T03:57:44;10.43;;;7.13;;
49123;SDS011;48506;48.202;16.274;2023-06-26T04:00:10;9.93;;;7.05;;
49123;SDS011;48506;48.202;16.274;2023-06-26T04:02:38;11.52;;;6.97;;
49123;SDS011;48506;48.202;16.274;2023-06-26T04:05:04;9.10;;;6.88;;
49123;SDS011;48506;48.202;16.274;2023-06-26T04:07:30;10.52;;;7.13;;
49123;SDS011;48506;48.202;16.274;2023-06-26T04:09:56;7.80;;;6.85;;
49123;SDS011;48506;48.202;16.274;2023-06-26T04:12:23;10.60;;;7.22;;
49123;SDS011;48506;48.202;16.274;2023-06-26T04:14:49;8.65;;;7.03;;
49123;SDS011;48506;48.202;16.274;2023-06-26T04:17:15;9.70;;;7.22;;
49123;SDS011;48506;48.202;16.274;2023-06-26T04:19:41;11.05;;;7.65;;
49123;SDS011;48506;48.202;16.274;2023-06-26T04:22:07;19.55;;;7.35;;
49123;SDS011;48506;48.202;16.274;2023-06-26T04:24:33;13.60;;;6.90;;
49123;SDS011;48506;48.202;16.274;2023-06-26T04:26:59;12.73;;;7.93;;
49123;SDS011;48506;48.202;16.274;2023-06-26T04:29:25;10.93;;;7.70;;
49123;SDS011;48506;48.202;16.274;2023-06-26T04:31:52;11.25;;;7.65;;
49123;SDS011;48506;48.202;16.274;2023-06-26T04:34:26;11.07;;;7.60;;
49123;SDS011;48506;48.202;16.274;2023-06-26T04:36:53;10.15;;;7.07;;
49123;SDS011;48506;48.202;16.274;2023-06-26T04:39:20;10.18;;;6.55;;
49123;SDS011;48506;48.202;16.274;2023-06-26T04:41:46;9.55;;;7.82;;
49123;SDS011;48506;48.202;16.274;2023-06-26T04:44:12;10.88;;;8.30;;
49123;SDS011;48506;48.202;16.274;2023-06-26T04:46:38;8.93;;;7.88;;
49123;SDS011;48506;48.202;16.274;2023-06-26T04:49:09;10.13;;;8.10;;
49123;SDS011;48506;48.202;16.274;2023-06-26T04:51:36;10.13;;;8.00;;
49123;SDS011;48506;48.202;16.274;2023-06-26T04:54:08;10.52;;;7.85;;
49123;SDS011;48506;48.202;16.274;2023-06-26T04:56:35;9.60;;;8.55;;
49123;SDS011;48506;48.202;16.274;2023-06-26T04:59:02;9.80;;;7.60;;
49123;SDS011;48506;48.202;16.274;2023-06-26T05:01:29;10.48;;;8.07;;
49123;SDS011;48506;48.202;16.274;2023-06-26T05:03:55;10.32;;;6.80;;
49123;SDS011;48506;48.202;16.274;2023-06-26T05:06:22;9.07;;;7.95;;
49123;SDS011;48506;48.202;16.274;2023-06-26T05:08:48;9.88;;;7.22;;
49123;SDS011;48506;48.202;16.274;2023-06-26T05:11:14;14.15;;;7.38;;
49123;SDS011;48506;48.202;16.274;2023-06-26T05:13:40;10.82;;;8.07;;
49123;SDS011;48506;48.202;16.274;2023-06-26T05:16:06;7.75;;;6.75;;
49123;SDS011;48506;48.202;16.274;2023-06-26T05:18:34;8.43;;;6.97;;
49123;SDS011;48506;48.202;16.274;2023-06-26T05:21:00;9.85;;;7.63;;
49123;SDS011;48506;48.202;16.274;2023-06-26T05:23:27;11.50;;;7.97;;
49123;SDS011;48506;48.202;16.274;2023-06-26T05:25:57;9.88;;;8.20;;
49123;SDS011;48506;48.202;16.274;2023-06-26T05:28:23;9.77;;;7.25;;
49123;SDS011;48506;48.202;16.274;2023-06-26T05:30:53;8.18;;;6.72;;
49123;SDS011;48506;48.202;16.274;2023-06-26T05:33:21;11.50;;;7.45;;
49123;SDS011;48506;48.202;16.274;2023-06-26T05:35:49;9.60;;;7.57;;
49123;SDS011;48506;48.202;16.274;2023-06-26T05:38:18;10.88;;;8.02;;
49123;SDS011;48506;48.202;16.274;2023-06-26T05:40:44;10.95;;;8.82;;
49123;SDS011;48506;48.202;16.274;2023-06-26T05:43:10;9.52;;;7.63;;
49123;SDS011;48506;48.202;16.274;2023-06-26T05:45:36;12.00;;;8.20;;
49123;SDS011;48506;48.202;16.274;2023-06-26T05:48:02;9.45;;;8.48;;
49123;SDS011;48506;48.202;16.274;2023-06-26T05:50:29;9.93;;;8.88;;
49123;SDS011;48506;48.202;16.274;2023-06-26T05:52:55;9.35;;;8.35;;
49123;SDS011;48506;48.202;16.274;2023-06-26T05:55:21;9.68;;;7.85;;
49123;SDS011;48506;48.202;16.274;2023-06-26T05:57:47;9.30;;;7.82;;
49123;SDS011;48506;48.202;16.274;2023-06-26T06:00:16;9.50;;;7.97;;
49123;SDS011;48506;48.202;16.274;2023-06-26T06:02:42;9.52;;;7.95;;
49123;SDS011;48506;48.202;16.274;2023-06-26T06:05:09;9.30;;;7.93;;
49123;SDS011;48506;48.202;16.274;2023-06-26T06:07:35;12.27;;;8.95;;
49123;SDS011;48506;48.202;16.274;2023-06-26T06:10:02;11.82;;;8.82;;
49123;SDS011;48506;48.202;16.274;2023-06-26T06:12:29;9.50;;;8.50;;
49123;SDS011;48506;48.202;16.274;2023-06-26T06:14:55;10.55;;;7.93;;
49123;SDS011;48506;48.202;16.274;2023-06-26T06:17:21;12.07;;;8.18;;
49123;SDS011;48506;48.202;16.274;2023-06-26T06:19:48;11.30;;;9.10;;
49123;SDS011;48506;48.202;16.274;2023-06-26T06:22:14;9.63;;;7.90;;
49123;SDS011;48506;48.202;16.274;2023-06-26T06:24:41;10.02;;;8.60;;
49123;SDS011;48506;48.202;16.274;2023-06-26T06:27:07;9.43;;;8.02;;
49123;SDS011;48506;48.202;16.274;2023-06-26T06:29:33;13.50;;;8.95;;
49123;SDS011;48506;48.202;16.274;2023-06-26T06:31:59;12.02;;;7.93;;
49123;SDS011;48506;48.202;16.274;2023-06-26T06:34:25;12.60;;;7.97;;
49123;SDS011;48506;48.202;16.274;2023-06-26T06:36:51;16.08;;;8.55;;
49123;SDS011;48506;48.202;16.274;2023-06-26T06:39:17;10.63;;;8.77;;
49123;SDS011;48506;48.202;16.274;2023-06-26T06:41:43;9.60;;;7.93;;
49123;SDS011;48506;48.202;16.274;2023-06-26T06:44:09;8.10;;;6.88;;
49123;SDS011;48506;48.202;16.274;2023-06-26T06:46:34;9.07;;;7.22;;
49123;SDS011;48506;48.202;16.274;2023-06-26T06:49:00;11.00;;;7.45;;
49123;SDS011;48506;48.202;16.274;2023-06-26T06:51:27;7.95;;;7.15;;
49123;SDS011;48506;48.202;16.274;2023-06-26T06:53:53;9.70;;;7.25;;
49123;SDS011;48506;48.202;16.274;2023-06-26T06:56:19;9.98;;;7.88;;
49123;SDS011;48506;48.202;16.274;2023-06-26T06:58:45;11.10;;;6.90;;
49123;SDS011;48506;48.202;16.274;2023-06-26T07:01:13;9.07;;;7.65;;
49123;SDS011;48506;48.202;16.274;2023-06-26T07:03:39;7.60;;;6.80;;
49123;SDS011;48506;48.202;16.274;2023-06-26T07:06:05;7.53;;;6.68;;
49123;SDS011;48506;48.202;16.274;2023-06-26T07:08:31;7.68;;;6.88;;
49123;SDS011;48506;48.202;16.274;2023-06-26T07:10:57;7.70;;;6.22;;
49123;SDS011;48506;48.202;16.274;2023-06-26T07:13:23;7.63;;;5.68;;
49123;SDS011;48506;48.202;16.274;2023-06-26T07:15:49;8.38;;;6.32;;
49123;SDS011;48506;48.202;16.274;2023-06-26T07:18:15;6.55;;;5.88;;
49123;SDS011;48506;48.202;16.274;2023-06-26T07:20:41;8.93;;;6.28;;
49123;SDS011;48506;48.202;16.274;2023-06-26T07:23:07;19.90;;;6.07;;
49123;SDS011;48506;48.202;16.274;2023-06-26T07:25:34;7.88;;;6.32;;
49123;SDS011;48506;48.202;16.274;2023-06-26T07:28:01;9.50;;;5.68;;
49123;SDS011;48506;48.202;16.274;2023-06-26T07:30:27;7.45;;;6.47;;
49123;SDS011;48506;48.202;16.274;2023-06-26T07:32:53;6.55;;;5.88;;
49123;SDS011;48506;48.202;16.274;2023-06-26T07:35:19;9.60;;;6.70;;
49123;SDS011;48506;48.202;16.274;2023-06-26T07:37:45;6.05;;;5.38;;
49123;SDS011;48506;48.202;16.274;2023-06-26T07:40:11;8.32;;;5.75;;
49123;SDS011;48506;48.202;16.274;2023-06-26T07:42:38;7.05;;;6.35;;
49123;SDS011;48506;48.202;16.274;2023-06-26T07:45:05;7.10;;;5.95;;
49123;SDS011;48506;48.202;16.274;2023-06-26T07:47:36;8.50;;;7.18;;
49123;SDS011;48506;48.202;16.274;2023-06-26T07:50:03;7.07;;;5.75;;
49123;SDS011;48506;48.202;16.274;2023-06-26T07:52:31;9.25;;;5.88;;
49123;SDS011;48506;48.202;16.274;2023-06-26T07:54:57;6.82;;;6.13;;
49123;SDS011;48506;48.202;16.274;2023-06-26T07:57:23;11.05;;;7.13;;
49123;SDS011;48506;48.202;16.274;2023-06-26T07:59:49;6.03;;;5.22;;
49123;SDS011;48506;48.202;16.274;2023-06-26T08:02:15;6.90;;;5.38;;
49123;SDS011;48506;48.202;16.274;2023-06-26T08:04:42;6.72;;;5.45;;
49123;SDS011;48506;48.202;16.274;2023-06-26T08:07:10;7.82;;;4.47;;
49123;SDS011;48506;48.202;16.274;2023-06-26T08:09:36;7.47;;;5.43;;
49123;SDS011;48506;48.202;16.274;2023-06-26T08:12:02;5.18;;;4.60;;
49123;SDS011;48506;48.202;16.274;2023-06-26T08:14:29;5.57;;;5.00;;
49123;SDS011;48506;48.202;16.274;2023-06-26T08:16:55;6.60;;;4.80;;
49123;SDS011;48506;48.202;16.274;2023-06-26T08:19:21;6.60;;;4.57;;
49123;SDS011;48506;48.202;16.274;2023-06-26T08:21:48;5.78;;;5.15;;
49123;SDS011;48506;48.202;16.274;2023-06-26T08:24:14;6.38;;;5.10;;
49123;SDS011;48506;48.202;16.274;2023-06-26T08:26:47;5.03;;;4.53;;
49123;SDS011;48506;48.202;16.274;2023-06-26T08:29:14;7.85;;;4.88;;
49123;SDS011;48506;48.202;16.274;2023-06-26T08:31:40;5.63;;;4.80;;
49123;SDS011;48506;48.202;16.274;2023-06-26T08:34:07;6.78;;;4.80;;
49123;SDS011;48506;48.202;16.274;2023-06-26T08:36:33;5.03;;;4.53;;
49123;SDS011;48506;48.202;16.274;2023-06-26T08:38:59;6.57;;;5.32;;
49123;SDS011;48506;48.202;16.274;2023-06-26T08:41:25;6.78;;;5.07;;
49123;SDS011;48506;48.202;16.274;2023-06-26T08:43:51;6.18;;;5.55;;
49123;SDS011;48506;48.202;16.274;2023-06-26T08:46:18;6.90;;;5.60;;
49123;SDS011;48506;48.202;16.274;2023-06-26T08:48:46;7.40;;;5.47;;
49123;SDS011;48506;48.202;16.274;2023-06-26T08:51:20;6.57;;;5.45;;
49123;SDS011;48506;48.202;16.274;2023-06-26T08:53:57;6.10;;;5.18;;
49123;SDS011;48506;48.202;16.274;2023-06-26T08:56:27;7.30;;;5.47;;
49123;SDS011;48506;48.202;16.274;2023-06-26T08:59:00;5.45;;;4.95;;
49123;SDS011;48506;48.202;16.274;2023-06-26T09:01:26;6.53;;;5.50;;
49123;SDS011;48506;48.202;16.274;2023-06-26T09:03:53;6.90;;;6.20;;
49123;SDS011;48506;48.202;16.274;2023-06-26T09:06:19;6.75;;;4.95;;
49123;SDS011;48506;48.202;16.274;2023-06-26T09:08:45;5.20;;;4.65;;
49123;SDS011;48506;48.202;16.274;2023-06-26T09:11:11;5.35;;;4.82;;
49123;SDS011;48506;48.202;16.274;2023-06-26T09:13:37;7.07;;;5.50;;
49123;SDS011;48506;48.202;16.274;2023-06-26T09:16:07;6.38;;;5.68;;
49123;SDS011;48506;48.202;16.274;2023-06-26T09:18:35;6.38;;;5.22;;
49123;SDS011;48506;48.202;16.274;2023-06-26T09:21:05;5.10;;;4.28;;
49123;SDS011;48506;48.202;16.274;2023-06-26T09:23:33;6.05;;;5.45;;
49123;SDS011;48506;48.202;16.274;2023-06-26T09:26:04;6.18;;;5.57;;
49123;SDS011;48506;48.202;16.274;2023-06-26T09:28:35;6.40;;;5.40;;
49123;SDS011;48506;48.202;16.274;2023-06-26T09:31:04;6.38;;;5.78;;
49123;SDS011;48506;48.202;16.274;2023-06-26T09:33:34;9.13;;;6.20;;
49123;SDS011;48506;48.202;16.274;2023-06-26T09:36:08;9.05;;;5.03;;
49123;SDS011;48506;48.202;16.274;2023-06-26T09:38:44;6.75;;;5.57;;
49123;SDS011;48506;48.202;16.274;2023-06-26T09:41:10;7.15;;;5.88;;
49123;SDS011;48506;48.202;16.274;2023-06-26T09:43:45;6.05;;;5.45;;
49123;SDS011;48506;48.202;16.274;2023-06-26T09:46:17;8.07;;;5.45;;
49123;SDS011;48506;48.202;16.274;2023-06-26T09:49:04;7.10;;;6.05;;
49123;SDS011;48506;48.202;16.274;2023-06-26T09:51:36;5.35;;;4.72;;
49123;SDS011;48506;48.202;16.274;2023-06-26T09:54:04;5.85;;;5.18;;
49123;SDS011;48506;48.202;16.274;2023-06-26T09:56:31;7.57;;;4.78;;
49123;SDS011;48506;48.202;16.274;2023-06-26T09:59:02;6.95;;;4.57;;
49123;SDS011;48506;48.202;16.274;2023-06-26T10:01:30;5.80;;;4.80;;
49123;SDS011;48506;48.202;16.274;2023-06-26T10:03:57;6.38;;;5.22;;
49123;SDS011;48506;48.202;16.274;2023-06-26T10:06:28;10.05;;;5.88;;
49123;SDS011;48506;48.202;16.274;2023-06-26T10:09:01;5.32;;;4.60;;
49123;SDS011;48506;48.202;16.274;2023-06-26T10:11:37;5.80;;;4.68;;
49123;SDS011;48506;48.202;16.274;2023-06-26T10:14:10;6.47;;;5.70;;
49123;SDS011;48506;48.202;16.274;2023-06-26T10:16:38;5.32;;;4.60;;
49123;SDS011;48506;48.202;16.274;2023-06-26T10:21:34;5.47;;;4.97;;
49123;SDS011;48506;48.202;16.274;2023-06-26T10:24:02;5.25;;;4.75;;
49123;SDS011;48506;48.202;16.274;2023-06-26T10:26:30;7.22;;;4.97;;
49123;SDS011;48506;48.202;16.274;2023-06-26T10:29:01;6.72;;;4.72;;
49123;SDS011;48506;48.202;16.274;2023-06-26T10:31:28;6.78;;;5.07;;
49123;SDS011;48506;48.202;16.274;2023-06-26T10:33:55;5.43;;;4.93;;
49123;SDS011;48506;48.202;16.274;2023-06-26T10:36:31;4.93;;;4.53;;
49123;SDS011;48506;48.202;16.274;2023-06-26T10:38:58;5.90;;;5.10;;
49123;SDS011;48506;48.202;16.274;2023-06-26T10:41:30;10.73;;;4.57;;
49123;SDS011;48506;48.202;16.274;2023-06-26T10:44:19;4.13;;;3.72;;
49123;SDS011;48506;48.202;16.274;2023-06-26T10:46:49;5.97;;;4.30;;
49123;SDS011;48506;48.202;16.274;2023-06-26T10:49:19;6.75;;;4.70;;
49123;SDS011;48506;48.202;16.274;2023-06-26T10:51:49;7.13;;;4.00;;
49123;SDS011;48506;48.202;16.274;2023-06-26T10:54:16;7.05;;;5.22;;
49123;SDS011;48506;48.202;16.274;2023-06-26T10:56:44;5.43;;;4.93;;
49123;SDS011;48506;48.202;16.274;2023-06-26T10:59:23;4.55;;;4.15;;
49123;SDS011;48506;48.202;16.274;2023-06-26T11:01:56;4.60;;;4.15;;
49123;SDS011;48506;48.202;16.274;2023-06-26T11:04:40;5.80;;;4.43;;
49123;SDS011;48506;48.202;16.274;2023-06-26T11:07:17;3.95;;;3.45;;
49123;SDS011;48506;48.202;16.274;2023-06-26T11:10:01;5.03;;;4.40;;
49123;SDS011;48506;48.202;16.274;2023-06-26T11:12:42;6.97;;;4.93;;
49123;SDS011;48506;48.202;16.274;2023-06-26T11:15:13;5.43;;;4.65;;
49123;SDS011;48506;48.202;16.274;2023-06-26T11:17:42;6.68;;;4.80;;
49123;SDS011;48506;48.202;16.274;2023-06-26T11:20:12;5.25;;;4.45;;
49123;SDS011;48506;48.202;16.274;2023-06-26T11:22:40;4.78;;;4.20;;
49123;SDS011;48506;48.202;16.274;2023-06-26T11:25:07;7.40;;;4.22;;
49123;SDS011;48506;48.202;16.274;2023-06-26T11:30:08;4.60;;;4.20;;
49123;SDS011;48506;48.202;16.274;2023-06-26T11:33:04;7.22;;;4.80;;
49123;SDS011;48506;48.202;16.274;2023-06-26T11:35:34;7.93;;;4.65;;
49123;SDS011;48506;48.202;16.274;2023-06-26T11:38:01;5.03;;;4.55;;
49123;SDS011;48506;48.202;16.274;2023-06-26T11:40:32;4.40;;;4.00;;
49123;SDS011;48506;48.202;16.274;2023-06-26T11:43:02;4.55;;;4.15;;
49123;SDS011;48506;48.202;16.274;2023-06-26T11:47:55;5.28;;;4.53;;
49123;SDS011;48506;48.202;16.274;2023-06-26T11:50:22;5.72;;;3.63;;
49123;SDS011;48506;48.202;16.274;2023-06-26T11:52:55;5.50;;;4.07;;
49123;SDS011;48506;48.202;16.274;2023-06-26T11:55:22;5.07;;;4.38;;
49123;SDS011;48506;48.202;16.274;2023-06-26T11:57:50;5.72;;;4.22;;
49123;SDS011;48506;48.202;16.274;2023-06-26T12:00:18;23.87;;;21.47;;
49123;SDS011;48506;48.202;16.274;2023-06-26T12:02:45;26.75;;;21.35;;
49123;SDS011;48506;48.202;16.274;2023-06-26T12:05:15;5.68;;;5.18;;
49123;SDS011;48506;48.202;16.274;2023-06-26T12:07:45;5.95;;;4.15;;
49123;SDS011;48506;48.202;16.274;2023-06-26T12:10:13;5.25;;;4.70;;
49123;SDS011;48506;48.202;16.274;2023-06-26T12:12:41;4.85;;;4.45;;
49123;SDS011;48506;48.202;16.274;2023-06-26T12:15:08;4.80;;;4.07;;
49123;SDS011;48506;48.202;16.274;2023-06-26T12:17:38;4.82;;;4.03;;
49123;SDS011;48506;48.202;16.274;2023-06-26T12:20:17;4.50;;;4.10;;
49123;SDS011;48506;48.202;16.274;2023-06-26T12:22:47;5.07;;;4.10;;
49123;SDS011;48506;48.202;16.274;2023-06-26T12:25:13;4.63;;;4.18;;
49123;SDS011;48506;48.202;16.274;2023-06-26T12:27:40;4.40;;;4.00;;
49123;SDS011;48506;48.202;16.274;2023-06-26T12:30:11;4.72;;;4.05;;
49123;SDS011;48506;48.202;16.274;2023-06-26T12:32:39;4.75;;;4.35;;
49123;SDS011;48506;48.202;16.274;2023-06-26T12:35:05;5.28;;;4.18;;
49123;SDS011;48506;48.202;16.274;2023-06-26T12:37:36;5.00;;;4.50;;
49123;SDS011;48506;48.202;16.274;2023-06-26T12:40:15;6.10;;;4.38;;
49123;SDS011;48506;48.202;16.274;2023-06-26T12:42:52;4.72;;;4.32;;
49123;SDS011;48506;48.202;16.274;2023-06-26T12:45:18;4.80;;;4.38;;
49123;SDS011;48506;48.202;16.274;2023-06-26T12:47:45;6.65;;;4.05;;
49123;SDS011;48506;48.202;16.274;2023-06-26T12:50:11;5.68;;;5.18;;
49123;SDS011;48506;48.202;16.274;2023-06-26T12:52:37;4.68;;;4.22;;
49123;SDS011;48506;48.202;16.274;2023-06-26T12:55:04;4.82;;;4.43;;
49123;SDS011;48506;48.202;16.274;2023-06-26T12:57:31;7.18;;;5.10;;
49123;SDS011;48506;48.202;16.274;2023-06-26T12:59:57;7.72;;;4.80;;
49123;SDS011;48506;48.202;16.274;2023-06-26T13:02:25;5.75;;;4.90;;
49123;SDS011;48506;48.202;16.274;2023-06-26T13:04:51;8.32;;;5.25;;
49123;SDS011;48506;48.202;16.274;2023-06-26T13:07:17;6.38;;;5.35;;
49123;SDS011;48506;48.202;16.274;2023-06-26T13:09:44;37.13;;;17.17;;
49123;SDS011;48506;48.202;16.274;2023-06-26T13:12:11;26.60;;;12.70;;
49123;SDS011;48506;48.202;16.274;2023-06-26T13:14:38;11.32;;;7.75;;
49123;SDS011;48506;48.202;16.274;2023-06-26T13:17:04;7.65;;;4.95;;
49123;SDS011;48506;48.202;16.274;2023-06-26T13:19:30;12.00;;;6.32;;
49123;SDS011;48506;48.202;16.274;2023-06-26T13:21:57;7.10;;;5.90;;
49123;SDS011;48506;48.202;16.274;2023-06-26T13:24:23;6.10;;;5.50;;
49123;SDS011;48506;48.202;16.274;2023-06-26T13:26:49;5.82;;;5.13;;
49123;SDS011;48506;48.202;16.274;2023-06-26T13:29:15;5.82;;;5.32;;
49123;SDS011;48506;48.202;16.274;2023-06-26T13:31:41;5.22;;;4.72;;
49123;SDS011;48506;48.202;16.274;2023-06-26T13:34:07;5.57;;;5.07;;
49123;SDS011;48506;48.202;16.274;2023-06-26T13:36:33;13.20;;;5.57;;
49123;SDS011;48506;48.202;16.274;2023-06-26T13:39:00;5.72;;;5.13;;
49123;SDS011;48506;48.202;16.274;2023-06-26T13:41:26;6.93;;;5.15;;
49123;SDS011;48506;48.202;16.274;2023-06-26T13:43:53;5.97;;;5.38;;
49123;SDS011;48506;48.202;16.274;2023-06-26T13:46:20;8.88;;;4.80;;
49123;SDS011;48506;48.202;16.274;2023-06-26T13:48:45;6.90;;;6.20;;
49123;SDS011;48506;48.202;16.274;2023-06-26T13:51:12;6.28;;;5.50;;
49123;SDS011;48506;48.202;16.274;2023-06-26T13:53:38;6.47;;;5.88;;
49123;SDS011;48506;48.202;16.274;2023-06-26T13:56:04;6.10;;;5.45;;
49123;SDS011;48506;48.202;16.274;2023-06-26T13:58:30;8.93;;;6.70;;
49123;SDS011;48506;48.202;16.274;2023-06-26T14:00:58;7.50;;;5.50;;
49123;SDS011;48506;48.202;16.274;2023-06-26T14:03:25;6.63;;;5.85;;
49123;SDS011;48506;48.202;16.274;2023-06-26T14:05:53;6.65;;;6.00;;
49123;SDS011;48506;48.202;16.274;2023-06-26T14:08:20;5.45;;;4.95;;
49123;SDS011;48506;48.202;16.274;2023-06-26T14:10:46;9.18;;;5.53;;
49123;SDS011;48506;48.202;16.274;2023-06-26T14:13:12;6.45;;;5.70;;
49123;SDS011;48506;48.202;16.274;2023-06-26T14:15:41;6.70;;;5.97;;
49123;SDS011;48506;48.202;16.274;2023-06-26T14:18:08;10.32;;;5.85;;
49123;SDS011;48506;48.202;16.274;2023-06-26T14:20:34;8.18;;;5.95;;
49123;SDS011;48506;48.202;16.274;2023-06-26T14:23:01;8.02;;;6.07;;
49123;SDS011;48506;48.202;16.274;2023-06-26T14:25:27;7.38;;;6.68;;
49123;SDS011;48506;48.202;16.274;2023-06-26T14:27:55;7.72;;;6.35;;
49123;SDS011;48506;48.202;16.274;2023-06-26T14:30:21;10.02;;;6.25;;
49123;SDS011;48506;48.202;16.274;2023-06-26T14:32:47;7.97;;;6.15;;
49123;SDS011;48506;48.202;16.274;2023-06-26T14:35:13;8.85;;;6.53;;
49123;SDS011;48506;48.202;16.274;2023-06-26T14:37:39;8.05;;;7.07;;
49123;SDS011;48506;48.202;16.274;2023-06-26T14:40:07;7.07;;;6.32;;
49123;SDS011;48506;48.202;16.274;2023-06-26T14:42:33;7.72;;;6.63;;
49123;SDS011;48506;48.202;16.274;2023-06-26T14:44:59;7.43;;;6.05;;
49123;SDS011;48506;48.202;16.274;2023-06-26T14:47:25;8.45;;;6.72;;
49123;SDS011;48506;48.202;16.274;2023-06-26T14:49:51;6.63;;;6.03;;
49123;SDS011;48506;48.202;16.274;2023-06-26T14:52:17;7.43;;;6.50;;
49123;SDS011;48506;48.202;16.274;2023-06-26T14:54:43;6.75;;;6.07;;